sensor_id;sensor_type;location;lat;lon;timestamp;pressure;altitude;pressure_sealevel;temperature;humidity
25130;BME280;13308;50.860;13.664;2023-04-23T04:22:59;95928.41;;;14.69;82.42
25130;BME280;13308;50.860;13.664;2023-04-23T04:25:25;95936.28;;;14.70;82.78
25130;BME280;13308;50.860;13.664;2023-04-23T04:27:52;95926.69;;;14.71;82.98
25130;BME280;13308;50.860;13.664;2023-04-23T04:30:18;95930.84;;;14.76;82.56
25130;BME280;13308;50.860;13.664;2023-04-23T04:32:43;95938.72;;;14.77;82.41
25130;BME280;13308;50.860;13.664;2023-04-23T04:35:09;95934.50;;;14.91;81.61
25130;BME280;13308;50.860;13.664;2023-04-23T04:37:36;95951.16;;;14.91;81.77
25130;BME280;13308;50.860;13.664;2023-04-23T04:40:02;95946.66;;;14.93;81.53
25130;BME280;13308;50.860;13.664;2023-04-23T04:42:29;95943.56;;;15.00;80.81
25130;BME280;13308;50.860;13.664;2023-04-23T04:44:55;95950.31;;;15.08;79.87
25130;BME280;13308;50.860;13.664;2023-04-23T04:47:23;95938.88;;;15.15;79.37
25130;BME280;13308;50.860;13.664;2023-04-23T04:49:49;95939.94;;;15.18;78.97
25130;BME280;13308;50.860;13.664;2023-04-23T04:52:15;95937.94;;;15.18;79.24
25130;BME280;13308;50.860;13.664;2023-04-23T04:54:41;95944.56;;;15.21;79.12
25130;BME280;13308;50.860;13.664;2023-04-23T04:57:06;95944.25;;;15.19;78.96
25130;BME280;13308;50.860;13.664;2023-04-23T04:59:31;95943.50;;;15.18;79.07
25130;BME280;13308;50.860;13.664;2023-04-23T05:01:56;95945.03;;;15.19;79.02
25130;BME280;13308;50.860;13.664;2023-04-23T05:04:22;95953.97;;;15.23;78.50
25130;BME280;13308;50.860;13.664;2023-04-23T05:06:47;95961.06;;;15.33;76.23
25130;BME280;13308;50.860;13.664;2023-04-23T05:09:12;95951.16;;;15.41;75.30
25130;BME280;13308;50.860;13.664;2023-04-23T05:11:38;95960.72;;;15.40;76.37
25130;BME280;13308;50.860;13.664;2023-04-23T05:14:05;95949.31;;;15.38;76.09
25130;BME280;13308;50.860;13.664;2023-04-23T05:16:30;95956.72;;;15.41;75.77
25130;BME280;13308;50.860;13.664;2023-04-23T05:18:55;95954.66;;;15.51;74.95
25130;BME280;13308;50.860;13.664;2023-04-23T05:21:21;95961.56;;;15.55;75.50
25130;BME280;13308;50.860;13.664;2023-04-23T05:23:46;95957.66;;;15.62;74.99
25130;BME280;13308;50.860;13.664;2023-04-23T05:26:12;95966.16;;;15.58;74.83
25130;BME280;13308;50.860;13.664;2023-04-23T05:28:37;95962.31;;;15.56;75.23
25130;BME280;13308;50.860;13.664;2023-04-23T05:31:03;95963.38;;;15.58;75.96
25130;BME280;13308;50.860;13.664;2023-04-23T05:33:28;95964.88;;;15.68;74.35
25130;BME280;13308;50.860;13.664;2023-04-23T05:35:53;95965.84;;;15.65;74.36
25130;BME280;13308;50.860;13.664;2023-04-23T05:38:19;95964.72;;;15.72;73.86
25130;BME280;13308;50.860;13.664;2023-04-23T05:40:45;95962.06;;;15.77;74.12
25130;BME280;13308;50.860;13.664;2023-04-23T05:43:11;95972.50;;;15.82;74.36
25130;BME280;13308;50.860;13.664;2023-04-23T05:45:36;95968.19;;;15.81;74.37
25130;BME280;13308;50.860;13.664;2023-04-23T05:48:01;95966.19;;;15.82;73.12
25130;BME280;13308;50.860;13.664;2023-04-23T05:50:27;95975.53;;;15.93;73.13
25130;BME280;13308;50.860;13.664;2023-04-23T05:52:52;95967.66;;;15.92;71.59
25130;BME280;13308;50.860;13.664;2023-04-23T05:55:19;95969.03;;;15.96;72.38
25130;BME280;13308;50.860;13.664;2023-04-23T05:57:44;95973.66;;;15.99;71.94
25130;BME280;13308;50.860;13.664;2023-04-23T06:00:11;95974.59;;;15.96;72.75
25130;BME280;13308;50.860;13.664;2023-04-23T06:02:40;95980.44;;;15.98;72.49
25130;BME280;13308;50.860;13.664;2023-04-23T06:05:06;95977.06;;;15.94;70.82
25130;BME280;13308;50.860;13.664;2023-04-23T06:07:32;95976.06;;;16.06;70.47
25130;BME280;13308;50.860;13.664;2023-04-23T06:09:57;95975.97;;;16.01;70.76
25130;BME280;13308;50.860;13.664;2023-04-23T06:12:22;95988.34;;;16.00;70.50
25130;BME280;13308;50.860;13.664;2023-04-23T06:14:48;95978.19;;;16.11;70.03
25130;BME280;13308;50.860;13.664;2023-04-23T06:17:13;95987.78;;;16.10;70.93
25130;BME280;13308;50.860;13.664;2023-04-23T06:19:39;95977.25;;;16.14;69.99
25130;BME280;13308;50.860;13.664;2023-04-23T06:22:05;95986.34;;;16.15;69.90
25130;BME280;13308;50.860;13.664;2023-04-23T06:24:30;95996.72;;;16.14;71.00
25130;BME280;13308;50.860;13.664;2023-04-23T06:26:55;96002.94;;;16.09;70.78
25130;BME280;13308;50.860;13.664;2023-04-23T06:29:22;96008.44;;;16.18;70.83
25130;BME280;13308;50.860;13.664;2023-04-23T06:32:01;96005.56;;;16.13;71.98
25130;BME280;13308;50.860;13.664;2023-04-23T06:34:27;96012.91;;;16.01;72.55
25130;BME280;13308;50.860;13.664;2023-04-23T06:36:53;96013.66;;;16.02;71.23
25130;BME280;13308;50.860;13.664;2023-04-23T06:39:18;96027.56;;;16.02;71.02
25130;BME280;13308;50.860;13.664;2023-04-23T06:41:43;96029.63;;;15.92;71.07
25130;BME280;13308;50.860;13.664;2023-04-23T06:44:20;96023.59;;;15.94;71.10
25130;BME280;13308;50.860;13.664;2023-04-23T06:46:50;96020.81;;;15.94;72.06
25130;BME280;13308;50.860;13.664;2023-04-23T06:49:15;96019.16;;;15.87;73.44
25130;BME280;13308;50.860;13.664;2023-04-23T06:51:40;96019.56;;;15.95;72.13
25130;BME280;13308;50.860;13.664;2023-04-23T06:54:06;96018.25;;;15.81;73.75
25130;BME280;13308;50.860;13.664;2023-04-23T06:56:31;96021.09;;;15.72;74.99
25130;BME280;13308;50.860;13.664;2023-04-23T06:58:56;96012.44;;;15.70;74.92
25130;BME280;13308;50.860;13.664;2023-04-23T07:01:22;96017.72;;;15.68;75.40
25130;BME280;13308;50.860;13.664;2023-04-23T07:03:47;96026.50;;;15.67;76.39
25130;BME280;13308;50.860;13.664;2023-04-23T07:06:15;96022.38;;;15.62;77.82
25130;BME280;13308;50.860;13.664;2023-04-23T07:08:42;96021.34;;;15.51;79.01
25130;BME280;13308;50.860;13.664;2023-04-23T07:11:07;96017.44;;;15.57;79.15
25130;BME280;13308;50.860;13.664;2023-04-23T07:13:32;96022.25;;;15.57;78.72
25130;BME280;13308;50.860;13.664;2023-04-23T07:15:58;96032.72;;;15.62;78.78
25130;BME280;13308;50.860;13.664;2023-04-23T07:18:23;96027.63;;;15.60;78.31
25130;BME280;13308;50.860;13.664;2023-04-23T07:20:49;96038.78;;;15.51;79.03
25130;BME280;13308;50.860;13.664;2023-04-23T07:23:14;96032.94;;;15.49;79.80
25130;BME280;13308;50.860;13.664;2023-04-23T07:25:39;96034.28;;;15.54;80.12
25130;BME280;13308;50.860;13.664;2023-04-23T07:28:05;96035.72;;;15.49;80.46
25130;BME280;13308;50.860;13.664;2023-04-23T07:30:30;96027.66;;;15.51;80.71
25130;BME280;13308;50.860;13.664;2023-04-23T07:32:56;96030.91;;;15.50;82.00
25130;BME280;13308;50.860;13.664;2023-04-23T07:35:21;96030.34;;;15.78;80.66
25130;BME280;13308;50.860;13.664;2023-04-23T07:37:46;96040.41;;;15.99;80.61
25130;BME280;13308;50.860;13.664;2023-04-23T07:40:17;96035.59;;;16.23;80.18
25130;BME280;13308;50.860;13.664;2023-04-23T07:42:42;96035.13;;;16.72;77.17
25130;BME280;13308;50.860;13.664;2023-04-23T07:45:08;96038.38;;;16.70;75.58
25130;BME280;13308;50.860;13.664;2023-04-23T07:47:34;96043.78;;;17.03;76.03
25130;BME280;13308;50.860;13.664;2023-04-23T07:49:59;96039.00;;;17.03;75.22
25130;BME280;13308;50.860;13.664;2023-04-23T07:52:25;96042.19;;;16.96;76.46
25130;BME280;13308;50.860;13.664;2023-04-23T07:54:50;96047.81;;;16.87;75.95
25130;BME280;13308;50.860;13.664;2023-04-23T07:57:16;96043.88;;;16.79;74.89
25130;BME280;13308;50.860;13.664;2023-04-23T07:59:41;96036.47;;;16.76;76.19
25130;BME280;13308;50.860;13.664;2023-04-23T08:02:07;96046.06;;;16.75;76.36
25130;BME280;13308;50.860;13.664;2023-04-23T08:04:32;96037.72;;;16.75;75.43
25130;BME280;13308;50.860;13.664;2023-04-23T08:06:58;96052.38;;;17.57;73.62
25130;BME280;13308;50.860;13.664;2023-04-23T08:09:23;96043.16;;;18.55;71.33
25130;BME280;13308;50.860;13.664;2023-04-23T08:11:49;96053.44;;;18.29;68.89
25130;BME280;13308;50.860;13.664;2023-04-23T08:14:14;96041.81;;;18.50;66.64
25130;BME280;13308;50.860;13.664;2023-04-23T08:16:39;96037.38;;;18.04;68.25
25130;BME280;13308;50.860;13.664;2023-04-23T08:19:05;96047.25;;;17.70;69.33
25130;BME280;13308;50.860;13.664;2023-04-23T08:21:31;96038.94;;;17.41;71.90
25130;BME280;13308;50.860;13.664;2023-04-23T08:23:56;96052.84;;;17.12;72.86
25130;BME280;13308;50.860;13.664;2023-04-23T08:26:22;96056.88;;;17.11;74.41
25130;BME280;13308;50.860;13.664;2023-04-23T08:28:47;96054.25;;;16.93;75.43
25130;BME280;13308;50.860;13.664;2023-04-23T08:31:13;96051.56;;;16.84;74.96
25130;BME280;13308;50.860;13.664;2023-04-23T08:33:38;96046.50;;;16.59;75.02
25130;BME280;13308;50.860;13.664;2023-04-23T08:36:04;96053.31;;;16.58;75.95
25130;BME280;13308;50.860;13.664;2023-04-23T08:38:30;96061.75;;;16.49;74.32
25130;BME280;13308;50.860;13.664;2023-04-23T08:40:56;96062.50;;;16.26;76.77
25130;BME280;13308;50.860;13.664;2023-04-23T08:43:30;96061.63;;;16.20;77.57
25130;BME280;13308;50.860;13.664;2023-04-23T08:46:01;96061.19;;;16.13;78.18
25130;BME280;13308;50.860;13.664;2023-04-23T08:48:29;96069.19;;;16.20;78.21
25130;BME280;13308;50.860;13.664;2023-04-23T08:50:56;96069.88;;;16.29;78.98
25130;BME280;13308;50.860;13.664;2023-04-23T08:53:24;96075.09;;;16.36;79.13
25130;BME280;13308;50.860;13.664;2023-04-23T08:55:53;96072.84;;;16.02;79.50
25130;BME280;13308;50.860;13.664;2023-04-23T08:58:20;96066.25;;;15.91;81.05
25130;BME280;13308;50.860;13.664;2023-04-23T09:00:47;96070.44;;;15.86;82.67
25130;BME280;13308;50.860;13.664;2023-04-23T09:03:15;96077.94;;;15.71;81.90
25130;BME280;13308;50.860;13.664;2023-04-23T09:05:41;96083.06;;;15.64;83.28
25130;BME280;13308;50.860;13.664;2023-04-23T09:08:06;96078.94;;;15.59;82.99
25130;BME280;13308;50.860;13.664;2023-04-23T09:10:36;96086.03;;;15.51;83.17
25130;BME280;13308;50.860;13.664;2023-04-23T09:13:01;96089.16;;;15.44;84.40
25130;BME280;13308;50.860;13.664;2023-04-23T09:15:27;96084.78;;;15.52;84.14
25130;BME280;13308;50.860;13.664;2023-04-23T09:17:52;96090.78;;;15.60;83.85
25130;BME280;13308;50.860;13.664;2023-04-23T09:20:17;96083.75;;;15.82;83.36
25130;BME280;13308;50.860;13.664;2023-04-23T09:22:47;96090.72;;;16.10;82.56
25130;BME280;13308;50.860;13.664;2023-04-23T09:25:18;96090.97;;;16.21;81.84
25130;BME280;13308;50.860;13.664;2023-04-23T09:27:44;96096.47;;;16.30;82.11
25130;BME280;13308;50.860;13.664;2023-04-23T09:30:10;96100.72;;;16.49;80.34
25130;BME280;13308;50.860;13.664;2023-04-23T09:32:38;96089.00;;;16.36;78.99
25130;BME280;13308;50.860;13.664;2023-04-23T09:35:05;96096.78;;;16.32;79.74
25130;BME280;13308;50.860;13.664;2023-04-23T09:37:32;96095.34;;;16.13;79.87
25130;BME280;13308;50.860;13.664;2023-04-23T09:39:59;96099.03;;;16.19;78.82
25130;BME280;13308;50.860;13.664;2023-04-23T09:42:28;96093.75;;;16.21;76.74
25130;BME280;13308;50.860;13.664;2023-04-23T09:44:59;96097.06;;;16.43;75.97
25130;BME280;13308;50.860;13.664;2023-04-23T09:47:24;96098.84;;;16.55;72.72
25130;BME280;13308;50.860;13.664;2023-04-23T09:49:50;96099.13;;;16.57;73.29
25130;BME280;13308;50.860;13.664;2023-04-23T09:52:16;96097.03;;;16.67;73.40
25130;BME280;13308;50.860;13.664;2023-04-23T09:54:42;96097.88;;;16.58;74.11
25130;BME280;13308;50.860;13.664;2023-04-23T09:57:37;96096.97;;;16.52;75.66
25130;BME280;13308;50.860;13.664;2023-04-23T10:00:13;96089.28;;;16.47;74.52
25130;BME280;13308;50.860;13.664;2023-04-23T10:02:47;96093.88;;;16.27;74.51
25130;BME280;13308;50.860;13.664;2023-04-23T10:05:17;96078.66;;;16.13;75.40
25130;BME280;13308;50.860;13.664;2023-04-23T10:07:43;96072.22;;;16.07;76.22
25130;BME280;13308;50.860;13.664;2023-04-23T10:10:18;96069.06;;;16.14;76.95
25130;BME280;13308;50.860;13.664;2023-04-23T10:12:45;96075.91;;;16.04;77.40
25130;BME280;13308;50.860;13.664;2023-04-23T10:15:11;96075.91;;;16.04;79.64
25130;BME280;13308;50.860;13.664;2023-04-23T10:17:37;96078.41;;;16.02;78.94
25130;BME280;13308;50.860;13.664;2023-04-23T10:20:04;96072.94;;;15.84;82.16
25130;BME280;13308;50.860;13.664;2023-04-23T10:22:33;96074.81;;;15.78;82.43
25130;BME280;13308;50.860;13.664;2023-04-23T10:25:00;96062.47;;;15.79;84.35
25130;BME280;13308;50.860;13.664;2023-04-23T10:27:29;96049.16;;;15.83;81.48
25130;BME280;13308;50.860;13.664;2023-04-23T10:29:56;96060.38;;;15.65;82.98
25130;BME280;13308;50.860;13.664;2023-04-23T10:32:22;96064.13;;;15.53;85.47
25130;BME280;13308;50.860;13.664;2023-04-23T10:34:48;96061.25;;;15.71;87.35
25130;BME280;13308;50.860;13.664;2023-04-23T10:37:13;96059.06;;;15.75;83.22
25130;BME280;13308;50.860;13.664;2023-04-23T10:39:42;96071.31;;;16.01;84.02
25130;BME280;13308;50.860;13.664;2023-04-23T10:42:08;96064.41;;;16.44;84.70
25130;BME280;13308;50.860;13.664;2023-04-23T10:44:40;96076.63;;;16.84;79.49
25130;BME280;13308;50.860;13.664;2023-04-23T10:47:13;96089.44;;;17.05;76.97
25130;BME280;13308;50.860;13.664;2023-04-23T10:49:39;96093.59;;;17.24;78.99
25130;BME280;13308;50.860;13.664;2023-04-23T10:52:12;96075.13;;;17.27;77.59
25130;BME280;13308;50.860;13.664;2023-04-23T10:54:40;96088.59;;;17.28;74.41
25130;BME280;13308;50.860;13.664;2023-04-23T10:57:07;96087.63;;;17.02;76.03
25130;BME280;13308;50.860;13.664;2023-04-23T10:59:34;96073.97;;;17.04;74.99
25130;BME280;13308;50.860;13.664;2023-04-23T11:02:06;96069.66;;;17.18;73.95
25130;BME280;13308;50.860;13.664;2023-04-23T11:04:33;96062.25;;;17.15;71.94
25130;BME280;13308;50.860;13.664;2023-04-23T11:07:06;96069.19;;;17.48;73.92
25130;BME280;13308;50.860;13.664;2023-04-23T11:09:37;96067.25;;;17.25;70.97
25130;BME280;13308;50.860;13.664;2023-04-23T11:12:05;96048.63;;;17.60;72.77
25130;BME280;13308;50.860;13.664;2023-04-23T11:14:42;96049.06;;;17.73;70.15
25130;BME280;13308;50.860;13.664;2023-04-23T11:17:11;96068.97;;;17.81;69.21
25130;BME280;13308;50.860;13.664;2023-04-23T11:19:38;96064.94;;;17.67;69.00
25130;BME280;13308;50.860;13.664;2023-04-23T11:22:16;96061.88;;;18.14;68.50
25130;BME280;13308;50.860;13.664;2023-04-23T11:24:43;96063.84;;;18.28;66.29
25130;BME280;13308;50.860;13.664;2023-04-23T11:27:13;96071.81;;;18.15;67.59
25130;BME280;13308;50.860;13.664;2023-04-23T11:29:40;96077.38;;;18.15;67.20
25130;BME280;13308;50.860;13.664;2023-04-23T11:32:06;96080.03;;;18.24;68.98
25130;BME280;13308;50.860;13.664;2023-04-23T11:34:36;96095.59;;;17.96;67.28
25130;BME280;13308;50.860;13.664;2023-04-23T11:37:03;96073.75;;;18.09;68.71
25130;BME280;13308;50.860;13.664;2023-04-23T11:39:29;96066.75;;;18.19;68.31
25130;BME280;13308;50.860;13.664;2023-04-23T11:41:54;96069.69;;;18.45;67.36
25130;BME280;13308;50.860;13.664;2023-04-23T11:44:21;96071.66;;;18.24;64.91
25130;BME280;13308;50.860;13.664;2023-04-23T11:46:47;96062.41;;;17.98;64.62
25130;BME280;13308;50.860;13.664;2023-04-23T11:49:14;96049.50;;;18.01;66.33
25130;BME280;13308;50.860;13.664;2023-04-23T11:51:42;96064.34;;;17.92;65.44
25130;BME280;13308;50.860;13.664;2023-04-23T11:54:08;96062.97;;;18.02;67.85
25130;BME280;13308;50.860;13.664;2023-04-23T11:56:35;96056.41;;;18.05;64.78
25130;BME280;13308;50.860;13.664;2023-04-23T11:59:02;96049.22;;;18.33;66.36
25130;BME280;13308;50.860;13.664;2023-04-23T12:01:47;96058.97;;;18.23;66.00
25130;BME280;13308;50.860;13.664;2023-04-23T12:04:14;96049.50;;;18.01;67.07
25130;BME280;13308;50.860;13.664;2023-04-23T12:06:42;96062.88;;;17.48;69.05
25130;BME280;13308;50.860;13.664;2023-04-23T12:09:09;96062.81;;;17.04;77.82
25130;BME280;13308;50.860;13.664;2023-04-23T12:11:36;96067.66;;;16.66;80.66
25130;BME280;13308;50.860;13.664;2023-04-23T12:14:01;96065.53;;;16.37;83.44
25130;BME280;13308;50.860;13.664;2023-04-23T12:16:34;96068.53;;;16.25;83.70
25130;BME280;13308;50.860;13.664;2023-04-23T12:19:00;96071.69;;;16.18;83.38
25130;BME280;13308;50.860;13.664;2023-04-23T12:21:25;96072.38;;;16.27;84.77
25130;BME280;13308;50.860;13.664;2023-04-23T12:23:52;96076.66;;;16.37;85.28
25130;BME280;13308;50.860;13.664;2023-04-23T12:26:18;96063.03;;;16.63;82.79
25130;BME280;13308;50.860;13.664;2023-04-23T12:28:49;96062.63;;;17.08;80.86
25130;BME280;13308;50.860;13.664;2023-04-23T12:31:22;96061.59;;;17.20;79.00
25130;BME280;13308;50.860;13.664;2023-04-23T12:34:07;96061.31;;;17.61;77.24
25130;BME280;13308;50.860;13.664;2023-04-23T12:36:37;96061.69;;;17.69;75.53
25130;BME280;13308;50.860;13.664;2023-04-23T12:41:59;96053.34;;;18.03;75.79
25130;BME280;13308;50.860;13.664;2023-04-23T12:44:26;96052.97;;;17.96;72.35
25130;BME280;13308;50.860;13.664;2023-04-23T12:46:56;96059.47;;;18.07;73.26
25130;BME280;13308;50.860;13.664;2023-04-23T12:49:22;96055.44;;;18.08;74.08
25130;BME280;13308;50.860;13.664;2023-04-23T12:51:48;96050.84;;;18.05;71.69
25130;BME280;13308;50.860;13.664;2023-04-23T12:54:13;96050.09;;;17.90;73.68
25130;BME280;13308;50.860;13.664;2023-04-23T12:56:39;96049.78;;;17.68;72.00
25130;BME280;13308;50.860;13.664;2023-04-23T12:59:04;96055.38;;;17.54;73.40
25130;BME280;13308;50.860;13.664;2023-04-23T13:01:31;96047.28;;;17.41;73.76
25130;BME280;13308;50.860;13.664;2023-04-23T13:03:56;96047.66;;;17.78;74.07
25130;BME280;13308;50.860;13.664;2023-04-23T13:06:22;96040.09;;;17.98;72.05
25130;BME280;13308;50.860;13.664;2023-04-23T13:08:47;96043.31;;;18.11;72.14
25130;BME280;13308;50.860;13.664;2023-04-23T13:11:13;96047.81;;;18.43;70.61
25130;BME280;13308;50.860;13.664;2023-04-23T13:13:38;96037.31;;;18.18;73.07
25130;BME280;13308;50.860;13.664;2023-04-23T13:16:03;96037.72;;;17.91;72.26
25130;BME280;13308;50.860;13.664;2023-04-23T13:18:29;96026.31;;;17.60;72.86
25130;BME280;13308;50.860;13.664;2023-04-23T13:20:54;96035.38;;;17.41;74.98
25130;BME280;13308;50.860;13.664;2023-04-23T13:23:20;96031.50;;;17.09;77.03
25130;BME280;13308;50.860;13.664;2023-04-23T13:25:46;96033.22;;;16.92;79.24
25130;BME280;13308;50.860;13.664;2023-04-23T13:28:11;96030.13;;;16.76;79.39
25130;BME280;13308;50.860;13.664;2023-04-23T13:30:36;96014.72;;;16.51;79.61
25130;BME280;13308;50.860;13.664;2023-04-23T13:33:01;96017.78;;;16.53;81.15
25130;BME280;13308;50.860;13.664;2023-04-23T13:35:27;96014.19;;;16.76;79.48
25130;BME280;13308;50.860;13.664;2023-04-23T13:37:52;96008.34;;;16.74;79.63
25130;BME280;13308;50.860;13.664;2023-04-23T13:40:17;96003.13;;;17.25;77.36
25130;BME280;13308;50.860;13.664;2023-04-23T13:42:43;95991.47;;;17.70;73.67
25130;BME280;13308;50.860;13.664;2023-04-23T13:45:08;95995.72;;;18.20;71.89
25130;BME280;13308;50.860;13.664;2023-04-23T13:47:34;96000.22;;;19.54;69.40
25130;BME280;13308;50.860;13.664;2023-04-23T13:50:00;96001.44;;;20.79;61.84
25130;BME280;13308;50.860;13.664;2023-04-23T13:52:31;95993.09;;;20.26;62.06
25130;BME280;13308;50.860;13.664;2023-04-23T13:54:56;95993.72;;;19.68;63.35
25130;BME280;13308;50.860;13.664;2023-04-23T13:57:25;95990.19;;;19.11;65.59
25130;BME280;13308;50.860;13.664;2023-04-23T13:59:50;95986.66;;;18.05;70.04
25130;BME280;13308;50.860;13.664;2023-04-23T14:02:15;95991.47;;;17.70;72.55
25130;BME280;13308;50.860;13.664;2023-04-23T14:04:41;95979.97;;;17.34;74.02
25130;BME280;13308;50.860;13.664;2023-04-23T14:07:06;95970.97;;;17.73;74.76
25130;BME280;13308;50.860;13.664;2023-04-23T14:09:31;95971.06;;;17.44;75.17
25130;BME280;13308;50.860;13.664;2023-04-23T14:11:57;95965.28;;;17.33;76.77
25130;BME280;13308;50.860;13.664;2023-04-23T14:14:22;95969.56;;;17.63;76.24
25130;BME280;13308;50.860;13.664;2023-04-23T14:16:47;95952.22;;;17.25;77.91
25130;BME280;13308;50.860;13.664;2023-04-23T14:19:13;95963.16;;;17.28;77.00
25130;BME280;13308;50.860;13.664;2023-04-23T14:21:38;95956.16;;;17.47;76.03
25130;BME280;13308;50.860;13.664;2023-04-23T14:24:08;95957.31;;;17.26;76.82
25130;BME280;13308;50.860;13.664;2023-04-23T14:26:40;95952.59;;;17.32;77.44
25130;BME280;13308;50.860;13.664;2023-04-23T14:29:28;95952.72;;;16.94;76.77
25130;BME280;13308;50.860;13.664;2023-04-23T14:31:54;95953.88;;;17.02;78.14
25130;BME280;13308;50.860;13.664;2023-04-23T14:34:20;95960.59;;;17.10;78.41
25130;BME280;13308;50.860;13.664;2023-04-23T14:36:46;95941.56;;;16.65;80.62
25130;BME280;13308;50.860;13.664;2023-04-23T14:39:13;95945.22;;;16.71;79.65
25130;BME280;13308;50.860;13.664;2023-04-23T14:41:39;95944.75;;;16.87;78.55
25130;BME280;13308;50.860;13.664;2023-04-23T14:44:05;95944.84;;;16.64;79.66
25130;BME280;13308;50.860;13.664;2023-04-23T14:46:30;95947.53;;;16.58;80.28
25130;BME280;13308;50.860;13.664;2023-04-23T14:48:55;95945.03;;;16.60;81.54
25130;BME280;13308;50.860;13.664;2023-04-23T14:51:21;95935.63;;;16.43;82.69
25130;BME280;13308;50.860;13.664;2023-04-23T14:53:46;95929.19;;;16.52;83.68
25130;BME280;13308;50.860;13.664;2023-04-23T14:56:11;95924.13;;;16.79;81.57
25130;BME280;13308;50.860;13.664;2023-04-23T14:58:37;95923.59;;;16.95;81.27
25130;BME280;13308;50.860;13.664;2023-04-23T15:01:03;95919.09;;;16.83;81.90
25130;BME280;13308;50.860;13.664;2023-04-23T15:03:28;95910.25;;;16.99;80.85
25130;BME280;13308;50.860;13.664;2023-04-23T15:05:53;95911.75;;;17.64;76.15
25130;BME280;13308;50.860;13.664;2023-04-23T15:08:19;95908.75;;;17.67;76.14
25130;BME280;13308;50.860;13.664;2023-04-23T15:10:44;95914.34;;;17.67;76.33
25130;BME280;13308;50.860;13.664;2023-04-23T15:15:41;95900.41;;;17.33;78.53
25130;BME280;13308;50.860;13.664;2023-04-23T15:18:09;95905.97;;;17.47;77.83
25130;BME280;13308;50.860;13.664;2023-04-23T15:20:35;95899.34;;;17.30;78.01
25130;BME280;13308;50.860;13.664;2023-04-23T15:23:01;95892.28;;;17.49;79.19
25130;BME280;13308;50.860;13.664;2023-04-23T15:25:26;95896.50;;;17.99;75.70
25130;BME280;13308;50.860;13.664;2023-04-23T15:27:51;95909.03;;;19.31;69.93
25130;BME280;13308;50.860;13.664;2023-04-23T15:30:25;95897.28;;;19.27;67.80
25130;BME280;13308;50.860;13.664;2023-04-23T15:32:54;95903.41;;;18.69;68.75
25130;BME280;13308;50.860;13.664;2023-04-23T15:35:21;95892.31;;;17.89;71.31
25130;BME280;13308;50.860;13.664;2023-04-23T15:37:46;95892.31;;;17.89;72.42
25130;BME280;13308;50.860;13.664;2023-04-23T15:40:12;95893.59;;;17.68;73.24
25130;BME280;13308;50.860;13.664;2023-04-23T15:42:37;95887.28;;;17.53;74.25
25130;BME280;13308;50.860;13.664;2023-04-23T15:45:06;95883.31;;;17.11;77.16
25130;BME280;13308;50.860;13.664;2023-04-23T15:47:32;95890.25;;;17.15;78.72
25130;BME280;13308;50.860;13.664;2023-04-23T15:49:58;95878.97;;;17.24;77.05
25130;BME280;13308;50.860;13.664;2023-04-23T15:52:23;95885.22;;;17.68;77.65
25130;BME280;13308;50.860;13.664;2023-04-23T15:54:48;95877.47;;;18.43;72.17
25130;BME280;13308;50.860;13.664;2023-04-23T15:57:14;95877.09;;;18.81;71.18
25130;BME280;13308;50.860;13.664;2023-04-23T15:59:39;95883.66;;;18.27;70.43
25130;BME280;13308;50.860;13.664;2023-04-23T16:02:05;95871.81;;;17.72;72.93
25130;BME280;13308;50.860;13.664;2023-04-23T16:04:30;95871.75;;;17.67;72.72
25130;BME280;13308;50.860;13.664;2023-04-23T16:06:55;95863.94;;;17.36;74.05
25130;BME280;13308;50.860;13.664;2023-04-23T16:09:21;95869.25;;;17.34;73.90
25130;BME280;13308;50.860;13.664;2023-04-23T16:11:46;95867.28;;;17.20;75.04
25130;BME280;13308;50.860;13.664;2023-04-23T16:14:12;95862.16;;;17.33;75.46
25130;BME280;13308;50.860;13.664;2023-04-23T16:16:37;95852.53;;;17.34;74.91
25130;BME280;13308;50.860;13.664;2023-04-23T16:19:02;95858.22;;;17.60;73.92
25130;BME280;13308;50.860;13.664;2023-04-23T16:21:28;95859.25;;;17.42;75.07
25130;BME280;13308;50.860;13.664;2023-04-23T16:23:53;95853.69;;;17.82;73.56
25130;BME280;13308;50.860;13.664;2023-04-23T16:26:18;95850.63;;;18.26;69.94
25130;BME280;13308;50.860;13.664;2023-04-23T16:28:44;95852.53;;;18.14;71.20
25130;BME280;13308;50.860;13.664;2023-04-23T16:31:10;95844.09;;;18.09;71.27
25130;BME280;13308;50.860;13.664;2023-04-23T16:33:36;95838.03;;;17.90;71.01
25130;BME280;13308;50.860;13.664;2023-04-23T16:36:01;95832.06;;;17.77;71.71
25130;BME280;13308;50.860;13.664;2023-04-23T16:38:26;95829.09;;;17.41;74.15
25130;BME280;13308;50.860;13.664;2023-04-23T16:40:51;95821.72;;;16.89;75.76
25130;BME280;13308;50.860;13.664;2023-04-23T16:43:17;95827.66;;;16.96;75.12
25130;BME280;13308;50.860;13.664;2023-04-23T16:45:42;95830.59;;;16.58;77.08
25130;BME280;13308;50.860;13.664;2023-04-23T16:48:08;95822.50;;;16.60;77.92
25130;BME280;13308;50.860;13.664;2023-04-23T16:50:37;95820.13;;;16.39;79.24
25130;BME280;13308;50.860;13.664;2023-04-23T16:53:02;95816.75;;;16.20;80.45
25130;BME280;13308;50.860;13.664;2023-04-23T16:55:27;95815.59;;;16.12;81.45
25130;BME280;13308;50.860;13.664;2023-04-23T16:57:52;95813.19;;;16.05;82.00
25130;BME280;13308;50.860;13.664;2023-04-23T17:00:18;95813.75;;;15.80;83.59
25130;BME280;13308;50.860;13.664;2023-04-23T17:02:43;95804.38;;;15.54;85.75
25130;BME280;13308;50.860;13.664;2023-04-23T17:05:08;95806.28;;;15.48;86.52
25130;BME280;13308;50.860;13.664;2023-04-23T17:07:35;95805.03;;;15.49;87.44
25130;BME280;13308;50.860;13.664;2023-04-23T17:10:00;95812.22;;;15.41;87.83
25130;BME280;13308;50.860;13.664;2023-04-23T17:12:25;95803.78;;;15.27;88.93
25130;BME280;13308;50.860;13.664;2023-04-23T17:14:51;95811.09;;;15.15;89.70